createdAt,value
2022-08-01T00:01:13.375Z,3.95
2022-08-01T00:03:39.974Z,2.08
2022-08-01T00:06:08.006Z,4.82
2022-08-01T00:08:34.646Z,3.28
2022-08-01T00:11:02.908Z,3.00
2022-08-01T00:13:29.797Z,2.40
2022-08-01T00:15:56.359Z,2.83
2022-08-01T00:18:23.072Z,2.47
2022-08-01T00:20:49.824Z,4.28
2022-08-01T00:23:17.826Z,2.50
2022-08-01T00:25:44.397Z,3.88
2022-08-01T00:28:11.087Z,2.53
2022-08-01T00:30:37.692Z,6.00
2022-08-01T00:33:04.477Z,4.75
2022-08-01T00:35:31.080Z,2.30
2022-08-01T00:37:57.742Z,6.15
2022-08-01T00:40:25.731Z,10.43
2022-08-01T00:42:52.379Z,2.03
2022-08-01T00:45:18.967Z,3.92
2022-08-01T00:47:46.014Z,4.53
2022-08-01T00:50:12.638Z,4.90
2022-08-01T00:52:40.539Z,3.85
2022-08-01T00:55:08.445Z,3.72
2022-08-01T00:58:02.784Z,5.97
2022-08-01T01:00:28.358Z,2.75
2022-08-01T01:02:55.078Z,5.07
2022-08-01T01:05:21.778Z,2.85
2022-08-01T01:07:54.637Z,2.70
2022-08-01T01:10:26.376Z,3.03
2022-08-01T01:13:00.062Z,2.75
2022-08-01T01:15:31.638Z,2.80
2022-08-01T01:18:02.493Z,4.03
2022-08-01T01:20:34.443Z,2.53
2022-08-01T01:23:27.109Z,3.70
2022-08-01T01:26:12.544Z,3.10
2022-08-01T01:28:58.589Z,3.95
2022-08-01T01:31:26.947Z,2.20
2022-08-01T01:33:54.545Z,3.03
2022-08-01T01:36:23.017Z,2.83
2022-08-01T01:38:51.746Z,4.07
2022-08-01T01:41:19.538Z,6.05
2022-08-01T01:43:47.540Z,3.85
2022-08-01T01:46:19.830Z,2.33
2022-08-01T01:48:47.891Z,2.60
2022-08-01T01:51:16.355Z,4.63
2022-08-01T01:53:45.651Z,3.92
2022-08-01T01:56:15.718Z,2.33
2022-08-01T01:58:44.185Z,2.95
2022-08-01T02:01:14.868Z,2.15
2022-08-01T02:03:44.268Z,4.68
2022-08-01T02:06:14.446Z,6.93
2022-08-01T02:08:42.510Z,2.55
2022-08-01T02:11:09.150Z,5.35
2022-08-01T02:13:39.074Z,7.47
2022-08-01T02:16:06.629Z,2.92
2022-08-01T02:18:33.824Z,4.65
2022-08-01T02:21:06.314Z,2.45
2022-08-01T02:23:37.061Z,3.65
2022-08-01T02:26:10.235Z,4.03
2022-08-01T02:28:44.155Z,4.55
2022-08-01T02:31:14.206Z,4.63
2022-08-01T02:33:44.675Z,4.80
2022-08-01T02:36:31.300Z,4.43
2022-08-01T02:39:01.530Z,3.90
2022-08-01T02:41:29.679Z,6.25
2022-08-01T02:44:01.808Z,8.52
2022-08-01T02:46:34.282Z,4.35
2022-08-01T02:49:03.549Z,6.85
2022-08-01T02:51:33.689Z,5.80
2022-08-01T02:54:03.566Z,6.07
2022-08-01T02:56:32.326Z,7.78
2022-08-01T02:58:59.225Z,5.65
2022-08-01T03:01:27.105Z,6.10
2022-08-01T03:03:56.308Z,4.57
2022-08-01T03:06:24.430Z,5.05
2022-08-01T03:08:54.447Z,5.93
2022-08-01T03:11:23.748Z,5.88
2022-08-01T03:13:52.799Z,3.92
2022-08-01T03:16:22.468Z,5.75
2022-08-01T03:18:49.790Z,3.67
2022-08-01T03:21:17.919Z,6.45
2022-08-01T03:23:46.953Z,4.80
2022-08-01T03:26:15.186Z,5.70
2022-08-01T03:28:45.187Z,5.72
2022-08-01T03:31:14.739Z,3.45
2022-08-01T03:33:41.569Z,6.28
2022-08-01T03:36:11.338Z,5.82
2022-08-01T03:38:41.602Z,5.97
2022-08-01T03:41:12.636Z,5.45
2022-08-01T03:43:45.143Z,3.33
2022-08-01T03:46:18.383Z,5.88
2022-08-01T03:48:49.322Z,6.45
2022-08-01T03:51:18.730Z,3.95
2022-08-01T03:53:47.551Z,4.90
2022-08-01T03:56:18.801Z,7.82
2022-08-01T04:01:18.593Z,6.78
2022-08-01T04:03:45.825Z,5.78
2022-08-01T04:06:13.689Z,8.45
2022-08-01T04:08:41.194Z,7.78
2022-08-01T04:11:10.107Z,6.45
2022-08-01T04:13:38.285Z,5.90
2022-08-01T04:16:06.853Z,7.15
2022-08-01T04:18:33.448Z,7.75
2022-08-01T04:21:00.072Z,4.82
2022-08-01T04:23:28.620Z,6.35
2022-08-01T04:25:57.582Z,6.07
2022-08-01T04:28:25.619Z,6.43
2022-08-01T04:31:01.655Z,8.48
2022-08-01T04:33:31.825Z,6.32
2022-08-01T04:36:03.612Z,7.97
2022-08-01T04:38:34.223Z,7.07
2022-08-01T04:41:09.061Z,8.10
2022-08-01T04:43:36.874Z,7.78
2022-08-01T04:46:04.135Z,6.80
2022-08-01T04:48:33.115Z,6.85
2022-08-01T04:50:59.851Z,5.03
2022-08-01T04:53:27.763Z,7.70
2022-08-01T04:55:54.447Z,8.05
2022-08-01T04:58:21.112Z,7.97
2022-08-01T05:00:48.069Z,6.85
2022-08-01T05:03:14.808Z,5.75
2022-08-01T05:05:42.834Z,8.88
2022-08-01T05:08:09.441Z,6.15
2022-08-01T05:10:36.055Z,7.13
2022-08-01T05:13:02.919Z,5.32
2022-08-01T05:15:29.517Z,5.38
2022-08-01T05:17:56.125Z,6.15
2022-08-01T05:20:22.757Z,7.50
2022-08-01T05:22:50.669Z,9.32
2022-08-01T05:25:20.017Z,8.15
2022-08-01T05:27:49.107Z,8.75
2022-08-01T05:30:18.150Z,8.50
2022-08-01T05:32:44.730Z,8.65
2022-08-01T05:35:11.347Z,7.65
2022-08-01T05:37:38.097Z,8.60
2022-08-01T05:40:07.263Z,9.82
2022-08-01T05:42:33.823Z,8.98
2022-08-01T05:45:00.457Z,12.98
2022-08-01T05:47:27.111Z,10.82
2022-08-01T05:49:53.724Z,8.50
2022-08-01T05:52:20.300Z,11.00
2022-08-01T05:54:46.977Z,13.35
2022-08-01T05:57:15.268Z,8.35
2022-08-01T05:59:42.131Z,10.65
2022-08-01T06:02:09.170Z,10.15
2022-08-01T06:04:36.250Z,9.25
2022-08-01T06:07:02.927Z,10.00
2022-08-01T06:09:29.640Z,10.63
2022-08-01T06:11:56.190Z,8.77
2022-08-01T06:14:24.260Z,9.88
2022-08-01T06:16:50.858Z,10.77
2022-08-01T06:19:18.064Z,7.68
2022-08-01T06:21:44.649Z,8.05
2022-08-01T06:24:11.362Z,9.05
2022-08-01T06:26:37.933Z,7.22
2022-08-01T06:29:04.620Z,9.55
2022-08-01T06:31:33.987Z,9.00
2022-08-01T06:34:00.927Z,10.10
2022-08-01T06:36:27.728Z,8.90
2022-08-01T06:38:54.403Z,7.50
2022-08-01T06:41:20.979Z,12.35
2022-08-01T06:43:47.707Z,8.65
2022-08-01T06:46:14.294Z,9.60
2022-08-01T06:48:42.310Z,12.85
2022-08-01T06:51:09.253Z,9.57
2022-08-01T06:53:37.415Z,12.18
2022-08-01T06:56:04.771Z,10.30
2022-08-01T06:58:31.940Z,10.23
2022-08-01T07:00:59.436Z,9.52
2022-08-01T07:03:26.529Z,8.15
2022-08-01T07:05:55.851Z,10.73
2022-08-01T07:08:22.551Z,7.85
2022-08-01T07:10:49.118Z,9.63
2022-08-01T07:13:15.790Z,8.43
2022-08-01T07:15:42.329Z,8.23
2022-08-01T07:18:08.958Z,10.40
2022-08-01T07:20:50.220Z,8.95
2022-08-01T07:23:22.767Z,9.77
2022-08-01T07:26:01.183Z,8.90
2022-08-01T07:28:27.952Z,8.43
2022-08-01T07:30:54.613Z,7.47
2022-08-01T07:33:21.215Z,9.65
2022-08-01T07:35:47.911Z,6.70
2022-08-01T07:38:14.632Z,8.57
2022-08-01T07:40:42.635Z,10.07
2022-08-01T07:43:09.264Z,6.57
2022-08-01T07:45:35.899Z,10.35
2022-08-01T07:48:04.416Z,8.05
2022-08-01T07:50:35.725Z,9.82
2022-08-01T07:53:02.321Z,8.45
2022-08-01T07:55:28.985Z,6.60
2022-08-01T07:57:56.973Z,7.97
2022-08-01T08:00:24.340Z,7.90
2022-08-01T08:02:50.898Z,6.57
2022-08-01T08:05:58.145Z,7.38
2022-08-01T08:08:05.907Z,5.88
2022-08-01T08:10:32.637Z,8.20
2022-08-01T08:13:00.819Z,6.55
2022-08-01T08:15:27.424Z,5.47
2022-08-01T08:17:55.170Z,8.45
2022-08-01T08:20:22.103Z,7.47
2022-08-01T08:22:48.740Z,5.30
2022-08-01T08:25:15.312Z,7.10
2022-08-01T08:27:43.044Z,6.85
2022-08-01T08:30:11.641Z,5.30
2022-08-01T08:32:38.514Z,7.47
2022-08-01T08:35:06.344Z,7.85
2022-08-01T08:37:37.890Z,5.75
2022-08-01T08:40:10.881Z,8.70
2022-08-01T08:42:40.732Z,5.68
2022-08-01T08:45:11.781Z,6.50
2022-08-01T08:47:42.547Z,6.68
2022-08-01T08:50:09.612Z,5.93
2022-08-01T08:52:39.103Z,9.98
2022-08-01T08:55:07.278Z,8.00
2022-08-01T08:57:34.203Z,6.43
2022-08-01T09:00:01.162Z,7.22
2022-08-01T09:02:27.784Z,5.95
2022-08-01T09:04:55.871Z,6.80
2022-08-01T09:07:22.478Z,9.13
2022-08-01T09:09:49.085Z,8.32
2022-08-01T09:12:17.544Z,6.75
2022-08-01T09:14:48.465Z,6.55
2022-08-01T09:17:15.411Z,7.55
2022-08-01T09:19:43.648Z,7.57
2022-08-01T09:22:13.642Z,7.93
2022-08-01T09:24:41.622Z,6.85
2022-08-01T09:27:21.852Z,5.45
2022-08-01T09:30:00.798Z,7.60
2022-08-01T09:32:34.677Z,6.40
2022-08-01T09:35:24.178Z,6.07
2022-08-01T09:38:14.882Z,10.77
2022-08-01T09:40:49.804Z,9.82
2022-08-01T09:43:18.174Z,7.85
2022-08-01T09:45:49.192Z,8.57
2022-08-01T09:48:18.294Z,8.40
2022-08-01T09:50:46.980Z,7.03
2022-08-01T09:53:29.479Z,9.68
2022-08-01T09:56:09.992Z,7.30
2022-08-01T09:58:52.545Z,9.18
2022-08-01T10:01:25.098Z,5.95
2022-08-01T10:04:10.537Z,5.63
2022-08-01T10:06:38.349Z,8.38
2022-08-01T10:09:06.282Z,7.65
2022-08-01T10:11:36.434Z,6.13
2022-08-01T10:14:04.988Z,6.40
2022-08-01T10:16:33.070Z,7.60
2022-08-01T10:19:00.409Z,7.13
2022-08-01T10:21:46.100Z,7.45
2022-08-01T10:24:18.734Z,5.60
2022-08-01T10:26:48.868Z,6.45
2022-08-01T10:29:45.377Z,6.40
2022-08-01T10:32:05.793Z,10.38
2022-08-01T10:34:35.145Z,7.05
2022-08-01T10:37:02.135Z,8.13
2022-08-01T10:39:34.333Z,6.85
2022-08-01T10:42:02.109Z,7.63
2022-08-01T10:44:32.731Z,8.00
2022-08-01T10:47:11.784Z,4.90
2022-08-01T10:49:45.438Z,5.88
2022-08-01T10:52:16.063Z,6.07
2022-08-01T10:54:52.257Z,6.07
2022-08-01T10:57:23.183Z,6.13
2022-08-01T11:00:01.054Z,5.63
2022-08-01T11:02:31.976Z,4.70
2022-08-01T11:05:04.149Z,5.65
2022-08-01T11:07:44.135Z,6.32
2022-08-01T11:10:23.633Z,6.72
2022-08-01T11:12:51.222Z,7.60
2022-08-01T11:15:29.779Z,6.03
2022-08-01T11:18:00.182Z,6.35
2022-08-01T11:20:28.595Z,6.60
2022-08-01T11:23:25.911Z,4.97
2022-08-01T11:26:12.931Z,4.97
2022-08-01T11:28:54.405Z,8.23
2022-08-01T11:31:30.383Z,5.78
2022-08-01T11:34:04.637Z,5.53
2022-08-01T11:36:56.913Z,5.03
2022-08-01T11:39:19.126Z,6.10
2022-08-01T11:41:50.645Z,8.50
2022-08-01T11:44:24.739Z,6.07
2022-08-01T11:47:10.581Z,4.20
2022-08-01T11:49:49.931Z,4.78
2022-08-01T11:52:18.879Z,8.27
2022-08-01T11:54:49.530Z,4.18
2022-08-01T11:57:20.277Z,4.43
2022-08-01T12:00:03.308Z,4.85
2022-08-01T12:02:59.106Z,4.15
2022-08-01T12:05:27.115Z,4.57
2022-08-01T12:07:55.075Z,5.60
2022-08-01T12:10:24.460Z,5.05
2022-08-01T12:12:55.779Z,4.13
2022-08-01T12:15:24.529Z,5.18
2022-08-01T12:17:58.517Z,4.03
2022-08-01T12:20:30.986Z,5.50
2022-08-01T12:23:00.177Z,7.65
2022-08-01T12:25:26.863Z,4.80
2022-08-01T12:27:56.792Z,5.85
2022-08-01T12:30:24.634Z,5.53
2022-08-01T12:32:52.215Z,5.72
2022-08-01T12:35:21.273Z,6.25
2022-08-01T12:37:49.869Z,4.22
2022-08-01T12:40:18.673Z,3.58
2022-08-01T12:42:48.824Z,4.63
2022-08-01T12:45:19.581Z,3.80
2022-08-01T12:47:47.185Z,3.70
2022-08-01T12:50:16.437Z,3.60
2022-08-01T12:52:43.956Z,4.85
2022-08-01T12:55:14.239Z,4.97
2022-08-01T12:57:43.820Z,8.32
2022-08-01T13:00:18.434Z,5.78
2022-08-01T13:02:47.139Z,3.88
2022-08-01T13:05:14.635Z,5.22
2022-08-01T13:07:46.016Z,4.22
2022-08-01T13:10:14.621Z,4.57
2022-08-01T13:12:42.181Z,3.85
2022-08-01T13:15:28.430Z,6.63
2022-08-01T13:17:55.537Z,4.00
2022-08-01T13:20:26.659Z,6.22
2022-08-01T13:22:53.734Z,4.10
2022-08-01T13:25:22.618Z,5.75
2022-08-01T13:27:53.550Z,4.13
2022-08-01T13:30:23.228Z,5.47
2022-08-01T13:32:58.729Z,3.92
2022-08-01T13:35:25.579Z,4.55
2022-08-01T13:37:52.155Z,5.18
2022-08-01T13:40:25.134Z,4.10
2022-08-01T13:42:51.872Z,3.80
2022-08-01T13:45:22.329Z,3.63
2022-08-01T13:48:12.006Z,3.50
2022-08-01T13:50:38.327Z,4.05
2022-08-01T13:53:04.913Z,4.90
2022-08-01T13:55:35.047Z,3.00
2022-08-01T13:58:02.221Z,4.25
2022-08-01T14:00:28.834Z,5.00
2022-08-01T14:02:56.783Z,7.15
2022-08-01T14:05:23.465Z,4.60
2022-08-01T14:07:50.208Z,3.70
2022-08-01T14:10:24.797Z,5.22
2022-08-01T14:12:51.569Z,2.80
2022-08-01T14:15:36.669Z,4.15
2022-08-01T14:18:07.786Z,3.45
2022-08-01T14:20:37.979Z,3.58
2022-08-01T14:23:08.539Z,3.58
2022-08-01T14:25:59.093Z,5.18
2022-08-01T14:28:23.154Z,5.65
2022-08-01T14:30:49.885Z,3.63
2022-08-01T14:33:17.860Z,3.97
2022-08-01T14:36:01.829Z,4.32
2022-08-01T14:38:33.557Z,6.03
2022-08-01T14:41:01.083Z,4.15
2022-08-01T14:43:32.882Z,2.80
2022-08-01T14:46:00.914Z,4.53
2022-08-01T14:48:30.153Z,3.45
2022-08-01T14:50:57.175Z,3.85
2022-08-01T14:53:23.771Z,3.75
2022-08-01T14:55:50.506Z,4.45
2022-08-01T14:58:17.093Z,3.60
2022-08-01T15:00:43.803Z,3.13
2022-08-01T15:03:10.505Z,2.75
2022-08-01T15:05:38.664Z,2.15
2022-08-01T15:08:07.138Z,3.60
2022-08-01T15:10:33.833Z,2.55
2022-08-01T15:13:00.395Z,2.55
2022-08-01T15:15:27.186Z,2.60
2022-08-01T15:17:53.949Z,2.78
2022-08-01T15:20:20.583Z,4.18
2022-08-01T15:22:48.633Z,3.10
2022-08-01T15:25:15.627Z,2.47
2022-08-01T15:27:42.342Z,3.38
2022-08-01T15:30:09.393Z,2.58
2022-08-01T15:32:35.954Z,2.30
2022-08-01T15:35:02.809Z,2.33
2022-08-01T15:37:29.482Z,2.45
2022-08-01T15:39:57.511Z,2.60
2022-08-01T15:42:25.578Z,3.20
2022-08-01T15:44:54.084Z,2.45
2022-08-01T15:47:20.803Z,5.55
2022-08-01T15:49:52.351Z,3.03
2022-08-01T15:52:21.306Z,2.47
2022-08-01T15:54:49.253Z,11.02
2022-08-01T15:57:17.186Z,2.90
2022-08-01T15:59:43.936Z,2.58
2022-08-01T16:02:11.132Z,1.95
2022-08-01T16:04:39.023Z,2.63
2022-08-01T16:07:06.016Z,2.67
2022-08-01T16:09:32.619Z,6.82
2022-08-01T16:11:59.262Z,2.92
2022-08-01T16:14:27.442Z,4.13
2022-08-01T16:16:57.061Z,2.55
2022-08-01T16:19:24.871Z,6.35
2022-08-01T16:21:51.777Z,2.45
2022-08-01T16:24:18.409Z,3.28
2022-08-01T16:26:45.179Z,2.08
2022-08-01T16:29:11.820Z,3.53
2022-08-01T16:31:50.311Z,2.65
2022-08-01T16:34:26.622Z,1.45
2022-08-01T16:36:53.252Z,4.82
2022-08-01T16:39:23.323Z,1.98
2022-08-01T16:41:50.418Z,5.40
2022-08-01T16:44:26.916Z,1.85
2022-08-01T16:47:02.367Z,4.00
2022-08-01T16:49:29.149Z,1.52
2022-08-01T16:51:55.894Z,2.03
2022-08-01T16:54:25.473Z,2.22
2022-08-01T16:56:52.596Z,2.17
2022-08-01T16:59:19.584Z,2.83
2022-08-01T17:02:01.298Z,4.30
2022-08-01T17:04:30.838Z,2.22
2022-08-01T17:06:57.992Z,4.30
2022-08-01T17:09:24.974Z,2.33
2022-08-01T17:11:51.725Z,2.53
2022-08-01T17:14:19.462Z,1.95
2022-08-01T17:16:46.027Z,2.10
2022-08-01T17:19:12.751Z,1.95
2022-08-01T17:21:43.208Z,2.38
2022-08-01T17:24:10.229Z,2.83
2022-08-01T17:26:38.921Z,2.53
2022-08-01T17:29:05.595Z,3.45
2022-08-01T17:31:32.185Z,2.40
2022-08-01T17:33:58.957Z,4.22
2022-08-01T17:36:25.582Z,2.95
2022-08-01T17:38:53.787Z,2.08
2022-08-01T17:41:20.797Z,1.95
2022-08-01T17:43:47.859Z,3.42
2022-08-01T17:46:14.906Z,4.43
2022-08-01T17:48:41.657Z,3.10
2022-08-01T17:51:08.256Z,3.47
2022-08-01T17:53:34.924Z,2.72
2022-08-01T17:56:03.392Z,2.40
2022-08-01T17:58:33.726Z,2.28
2022-08-01T18:01:17.995Z,3.60
2022-08-01T18:03:45.208Z,4.50
2022-08-01T18:06:13.273Z,7.22
2022-08-01T18:08:39.918Z,1.80
2022-08-01T18:11:08.483Z,2.85
2022-08-01T18:13:36.552Z,3.35
2022-08-01T18:16:08.188Z,4.75
2022-08-01T18:18:35.137Z,2.25
2022-08-01T18:21:02.463Z,4.70
2022-08-01T18:23:29.488Z,3.75
2022-08-01T18:25:56.122Z,3.92
2022-08-01T18:28:33.714Z,3.45
2022-08-01T18:31:04.229Z,4.88
2022-08-01T18:33:30.825Z,2.70
2022-08-01T18:36:03.696Z,2.92
2022-08-01T18:38:31.835Z,4.35
2022-08-01T18:40:58.427Z,3.00
2022-08-01T18:43:26.419Z,3.75
2022-08-01T18:45:53.263Z,3.53
2022-08-01T18:48:19.948Z,4.32
2022-08-01T18:50:46.570Z,2.90
2022-08-01T18:53:13.834Z,2.67
2022-08-01T18:55:40.745Z,5.93
2022-08-01T18:58:07.622Z,2.75
2022-08-01T19:00:35.588Z,3.63
2022-08-01T19:03:02.247Z,3.88
2022-08-01T19:05:28.845Z,6.90
2022-08-01T19:08:06.822Z,3.03
2022-08-01T19:10:34.426Z,3.42
2022-08-01T19:13:01.007Z,7.47
2022-08-01T19:15:27.754Z,3.90
2022-08-01T19:17:55.712Z,4.20
2022-08-01T19:20:22.827Z,5.20
2022-08-01T19:22:49.429Z,4.55
2022-08-01T19:25:16.132Z,3.00
2022-08-01T19:27:45.562Z,3.13
2022-08-01T19:30:13.517Z,6.45
2022-08-01T19:32:42.203Z,3.28
2022-08-01T19:35:13.149Z,3.75
2022-08-01T19:37:40.883Z,4.10
2022-08-01T19:40:08.411Z,4.38
2022-08-01T19:42:40.178Z,3.97
2022-08-01T19:45:07.524Z,7.47
2022-08-01T19:47:50.850Z,4.93
2022-08-01T19:50:20.600Z,4.00
2022-08-01T19:52:51.549Z,10.77
2022-08-01T19:55:18.781Z,3.83
2022-08-01T19:57:59.431Z,3.70
2022-08-01T20:00:36.920Z,4.68
2022-08-01T20:03:04.357Z,4.57
2022-08-01T20:05:33.042Z,6.32
2022-08-01T20:07:59.870Z,3.95
2022-08-01T20:10:29.929Z,3.92
2022-08-01T20:12:57.520Z,3.60
2022-08-01T20:15:25.412Z,5.28
2022-08-01T20:17:52.074Z,9.02
2022-08-01T20:20:18.848Z,6.72
2022-08-01T20:22:48.710Z,5.43
2022-08-01T20:25:20.246Z,5.68
2022-08-01T20:27:47.534Z,4.45
2022-08-01T20:30:14.404Z,5.38
2022-08-01T20:32:41.359Z,4.28
2022-08-01T20:35:09.323Z,4.57
2022-08-01T20:38:03.823Z,4.63
2022-08-01T20:40:27.189Z,4.85
2022-08-01T20:42:55.261Z,4.90
2022-08-01T20:45:23.372Z,5.82
2022-08-01T20:47:50.441Z,4.90
2022-08-01T20:50:52.318Z,5.60
2022-08-01T20:53:05.877Z,4.72
2022-08-01T20:55:44.302Z,4.47
2022-08-01T20:58:15.234Z,6.25
2022-08-01T21:03:19.117Z,6.70
2022-08-01T21:05:55.640Z,6.25
2022-08-01T21:08:30.296Z,5.88
2022-08-01T21:11:00.776Z,5.30
2022-08-01T21:13:37.335Z,4.28
2022-08-01T21:16:24.277Z,4.88
2022-08-01T21:19:18.147Z,4.82
2022-08-01T21:21:48.180Z,5.70
2022-08-01T21:24:16.837Z,5.85
2022-08-01T21:26:45.711Z,4.05
2022-08-01T21:29:13.399Z,4.63
2022-08-01T21:31:41.561Z,6.40
2022-08-01T21:34:09.601Z,4.60
2022-08-01T21:36:37.044Z,6.30
2022-08-01T21:39:05.588Z,7.13
2022-08-01T21:41:56.685Z,6.32
2022-08-01T21:44:28.726Z,6.00
2022-08-01T21:46:58.390Z,5.25
2022-08-01T21:49:25.131Z,7.22
2022-08-01T21:51:56.844Z,6.45
2022-08-01T21:54:29.752Z,5.55
2022-08-01T21:57:05.573Z,5.32
2022-08-01T21:59:43.335Z,5.72
2022-08-01T22:02:17.629Z,7.22
2022-08-01T22:04:48.921Z,5.15
2022-08-01T22:07:18.594Z,7.60
2022-08-01T22:09:49.412Z,5.75
2022-08-01T22:12:18.666Z,5.13
2022-08-01T22:14:49.234Z,6.95
2022-08-01T22:17:20.287Z,4.95
2022-08-01T22:19:50.692Z,5.90
2022-08-01T22:22:44.228Z,4.47
2022-08-01T22:25:08.585Z,5.00
2022-08-01T22:28:05.618Z,4.82
2022-08-01T22:30:28.437Z,7.53
2022-08-01T22:33:07.273Z,5.93
2022-08-01T22:35:44.525Z,5.97
2022-08-01T22:38:11.081Z,9.18
2022-08-01T22:40:44.716Z,7.18
2022-08-01T22:43:23.710Z,6.72
2022-08-01T22:46:04.586Z,5.10
2022-08-01T22:48:38.903Z,4.93
2022-08-01T22:51:12.454Z,5.40
2022-08-01T22:53:47.451Z,5.57
2022-08-01T22:56:14.284Z,5.78
2022-08-01T22:58:41.559Z,6.70
2022-08-01T23:01:14.015Z,8.30
2022-08-01T23:03:50.549Z,5.75
2022-08-01T23:06:21.261Z,6.78
2022-08-01T23:08:48.386Z,4.82
2022-08-01T23:11:15.405Z,5.47
2022-08-01T23:13:43.036Z,5.43
2022-08-01T23:16:16.943Z,7.75
2022-08-01T23:18:46.072Z,5.35
2022-08-01T23:21:13.108Z,6.18
2022-08-01T23:23:40.118Z,4.90
2022-08-01T23:26:09.227Z,5.32
2022-08-01T23:28:36.590Z,5.20
2022-08-01T23:31:04.669Z,5.70
2022-08-01T23:33:32.716Z,6.13
2022-08-01T23:35:59.429Z,5.43
2022-08-01T23:38:26.505Z,5.32
2022-08-01T23:40:53.101Z,5.75
2022-08-01T23:43:19.785Z,5.40
2022-08-01T23:46:04.637Z,5.38
2022-08-01T23:48:33.899Z,6.97
2022-08-01T23:51:00.795Z,5.70
2022-08-01T23:53:31.092Z,6.07
2022-08-01T23:55:58.306Z,5.30
2022-08-01T23:58:24.979Z,7.35
